createdAt,value
2019-02-12T00:01:50.083Z,5.33
2019-02-12T00:04:20.464Z,5.23
2019-02-12T00:06:50.785Z,5.40
2019-02-12T00:09:21.385Z,5.17
2019-02-12T00:11:51.762Z,5.37
2019-02-12T00:14:22.148Z,5.07
2019-02-12T00:16:53.802Z,5.07
2019-02-12T00:19:25.200Z,5.10
2019-02-12T00:21:57.615Z,5.30
2019-02-12T00:24:29.079Z,9.77
2019-02-12T00:26:59.456Z,8.20
2019-02-12T00:29:29.841Z,7.80
2019-02-12T00:32:00.976Z,6.70
2019-02-12T00:34:31.302Z,6.43
2019-02-12T00:37:02.460Z,6.27
2019-02-12T00:39:33.088Z,5.50
2019-02-12T00:42:04.256Z,5.73
2019-02-12T00:44:34.681Z,5.93
2019-02-12T00:47:05.080Z,5.33
2019-02-12T00:49:35.405Z,5.63
2019-02-12T00:52:05.836Z,5.70
2019-02-12T00:54:36.320Z,5.40
2019-02-12T00:57:07.741Z,4.97
2019-02-12T00:59:38.913Z,5.70
2019-02-12T01:02:10.270Z,6.47
2019-02-12T01:04:47.998Z,7.87
2019-02-12T01:07:18.433Z,7.33
2019-02-12T01:09:48.761Z,6.33
2019-02-12T01:12:20.172Z,6.10
2019-02-12T01:14:50.557Z,6.70
2019-02-12T01:17:21.005Z,6.20
2019-02-12T01:19:53.437Z,6.60
2019-02-12T01:22:23.894Z,7.10
2019-02-12T01:24:54.458Z,6.30
2019-02-12T01:27:24.898Z,6.07
2019-02-12T01:29:55.281Z,6.00
2019-02-12T01:32:25.598Z,5.80
2019-02-12T01:34:56.038Z,6.10
2019-02-12T01:37:26.367Z,6.20
2019-02-12T01:39:56.746Z,6.83
2019-02-12T01:42:27.199Z,5.47
2019-02-12T01:44:57.515Z,5.50
2019-02-12T01:47:27.874Z,5.43
2019-02-12T01:49:59.276Z,5.77
2019-02-12T01:52:29.604Z,5.43
2019-02-12T01:55:01.064Z,5.87
2019-02-12T01:57:31.460Z,5.93
2019-02-12T02:02:44.755Z,6.10
2019-02-12T02:05:15.126Z,5.90
2019-02-12T02:07:45.508Z,5.90
2019-02-12T02:10:16.276Z,5.33
2019-02-12T02:13:09.029Z,5.93
2019-02-12T02:15:44.591Z,5.90
2019-02-12T02:18:15.227Z,5.00
2019-02-12T02:20:45.628Z,5.50
2019-02-12T02:23:19.127Z,5.40
2019-02-12T02:25:49.509Z,5.53
2019-02-12T02:28:20.847Z,5.23
2019-02-12T02:30:51.228Z,4.97
2019-02-12T02:33:21.553Z,5.20
2019-02-12T02:35:53.984Z,5.10
2019-02-12T02:38:25.197Z,5.20
2019-02-12T02:40:55.575Z,5.30
2019-02-12T02:43:26.012Z,4.60
2019-02-12T02:45:56.405Z,5.20
2019-02-12T02:48:27.611Z,5.20
2019-02-12T02:50:58.005Z,5.33
2019-02-12T02:53:28.428Z,5.53
2019-02-12T02:55:58.748Z,6.10
2019-02-12T02:58:29.899Z,5.83
2019-02-12T03:01:00.337Z,6.43
2019-02-12T03:03:30.720Z,5.60
2019-02-12T03:06:01.099Z,5.03
2019-02-12T03:08:32.558Z,5.83
2019-02-12T03:11:02.960Z,5.47
2019-02-12T03:13:34.302Z,5.30
2019-02-12T03:16:04.676Z,5.67
2019-02-12T03:18:35.065Z,5.20
2019-02-12T03:21:05.729Z,5.80
2019-02-12T03:23:57.566Z,5.57
2019-02-12T03:26:27.938Z,5.50
2019-02-12T03:28:59.087Z,5.80
2019-02-12T03:31:29.591Z,6.60
2019-02-12T03:34:00.146Z,6.10
2019-02-12T03:36:31.201Z,6.33
2019-02-12T03:39:01.593Z,5.93
2019-02-12T03:41:32.754Z,6.90
2019-02-12T03:44:03.896Z,6.87
2019-02-12T03:46:35.041Z,6.47
2019-02-12T03:49:06.193Z,6.50
2019-02-12T03:51:36.640Z,6.40
2019-02-12T03:54:09.067Z,5.40
2019-02-12T03:56:40.400Z,5.40
2019-02-12T03:59:10.829Z,5.53
2019-02-12T04:01:41.152Z,6.13
2019-02-12T04:04:11.534Z,5.97
2019-02-12T04:06:41.969Z,5.77
2019-02-12T04:09:12.421Z,5.67
2019-02-12T04:11:43.763Z,6.37
2019-02-12T04:14:14.439Z,5.87
2019-02-12T04:16:46.878Z,5.90
2019-02-12T04:19:38.635Z,5.87
2019-02-12T04:22:09.200Z,5.43
2019-02-12T04:24:39.524Z,5.60
2019-02-12T04:27:10.030Z,6.20
2019-02-12T04:29:40.671Z,5.70
2019-02-12T04:32:11.805Z,6.20
2019-02-12T04:34:42.239Z,5.93
2019-02-12T04:37:13.373Z,5.23
2019-02-12T04:39:44.465Z,5.80
2019-02-12T04:42:16.879Z,5.60
2019-02-12T04:44:47.268Z,5.77
2019-02-12T04:47:20.716Z,5.47
2019-02-12T04:49:51.898Z,5.57
2019-02-12T04:52:31.606Z,5.50
2019-02-12T04:54:52.595Z,6.80
2019-02-12T04:57:23.253Z,5.57
2019-02-12T04:59:54.405Z,5.87
2019-02-12T05:02:24.788Z,6.00
2019-02-12T05:04:55.195Z,6.37
2019-02-12T05:07:25.565Z,6.07
2019-02-12T05:09:56.718Z,6.17
2019-02-12T05:12:27.937Z,6.57
2019-02-12T05:14:58.603Z,6.20
2019-02-12T05:17:29.887Z,6.10
2019-02-12T05:20:02.316Z,6.73
2019-02-12T05:22:42.888Z,6.47
2019-02-12T05:25:03.537Z,6.13
2019-02-12T05:27:33.955Z,6.27
2019-02-12T05:30:05.375Z,6.50
2019-02-12T05:32:36.199Z,6.37
2019-02-12T05:35:07.343Z,6.20
2019-02-12T05:37:38.495Z,6.83
2019-02-12T05:40:09.625Z,6.47
2019-02-12T05:42:40.701Z,6.20
2019-02-12T05:47:54.058Z,5.60
2019-02-12T05:50:25.448Z,5.80
2019-02-12T05:52:58.159Z,5.97
2019-02-12T05:55:28.537Z,6.20
2019-02-12T05:57:58.925Z,6.37
2019-02-12T06:00:29.304Z,6.63
2019-02-12T06:02:59.686Z,6.37
2019-02-12T06:05:30.109Z,6.60
2019-02-12T06:08:00.576Z,5.53
2019-02-12T06:10:31.658Z,6.10
2019-02-12T06:13:03.112Z,6.47
2019-02-12T06:15:34.199Z,7.90
2019-02-12T06:18:04.601Z,7.40
2019-02-12T06:20:35.047Z,7.93
2019-02-12T06:23:05.436Z,6.93
2019-02-12T06:25:35.816Z,6.93
2019-02-12T06:28:27.664Z,6.43
2019-02-12T06:30:57.881Z,6.10
2019-02-12T06:33:28.271Z,5.80
2019-02-12T06:35:59.723Z,6.33
2019-02-12T06:38:30.103Z,6.47
2019-02-12T06:41:00.664Z,6.00
2019-02-12T06:43:31.003Z,4.67
2019-02-12T06:46:01.449Z,7.67
2019-02-12T06:48:32.011Z,6.63
2019-02-12T06:51:03.735Z,6.90
2019-02-12T06:53:53.219Z,6.70
2019-02-12T06:56:43.172Z,5.67
2019-02-12T06:59:13.539Z,5.90
2019-02-12T07:01:43.944Z,5.87
2019-02-12T07:04:18.610Z,5.57
2019-02-12T07:06:51.818Z,5.60
2019-02-12T07:09:27.631Z,6.07
2019-02-12T07:12:17.498Z,6.43
2019-02-12T07:14:55.314Z,6.17
2019-02-12T07:20:43.285Z,6.67
2019-02-12T07:23:54.811Z,6.27
2019-02-12T07:26:58.286Z,6.00
2019-02-12T07:29:29.688Z,7.27
2019-02-12T07:32:47.634Z,7.43
2019-02-12T07:35:18.225Z,7.50
2019-02-12T07:37:54.317Z,7.50
2019-02-12T07:40:24.706Z,7.53
2019-02-12T07:43:06.105Z,7.07
2019-02-12T07:45:48.138Z,6.93
2019-02-12T07:48:30.160Z,6.87
2019-02-12T07:51:19.076Z,7.27
2019-02-12T07:57:18.676Z,6.87
2019-02-12T07:59:56.963Z,6.70
2019-02-12T08:02:34.470Z,7.20
2019-02-12T08:05:10.664Z,6.97
2019-02-12T08:08:04.283Z,7.00
2019-02-12T08:11:06.515Z,7.30
2019-02-12T08:13:45.600Z,7.60
2019-02-12T08:16:37.885Z,6.40
2019-02-12T08:19:16.896Z,6.80
2019-02-12T08:22:10.117Z,6.57
2019-02-12T08:25:01.998Z,5.63
2019-02-12T08:27:52.442Z,7.13
2019-02-12T08:30:31.008Z,7.00
2019-02-12T08:33:09.183Z,7.27
2019-02-12T08:35:57.394Z,7.33
2019-02-12T08:38:25.216Z,7.90
2019-02-12T08:41:09.398Z,8.37
2019-02-12T08:44:00.707Z,8.20
2019-02-12T08:46:33.723Z,8.20
2019-02-12T08:49:23.483Z,8.00
2019-02-12T08:52:02.492Z,8.03
2019-02-12T08:55:10.379Z,7.80
2019-02-12T08:58:03.594Z,7.60
2019-02-12T09:00:47.637Z,8.13
2019-02-12T09:03:35.126Z,6.90
2019-02-12T09:06:49.885Z,9.00
2019-02-12T09:09:58.838Z,6.60
2019-02-12T09:15:50.936Z,9.43
2019-02-12T09:18:27.207Z,8.30
2019-02-12T09:21:00.509Z,8.67
2019-02-12T09:24:06.849Z,8.07
2019-02-12T09:27:06.469Z,7.00
2019-02-12T09:29:53.221Z,6.53
2019-02-12T09:32:43.062Z,9.43
2019-02-12T09:35:24.008Z,10.03
2019-02-12T09:38:14.388Z,10.33
2019-02-12T09:40:52.606Z,11.20
2019-02-12T09:43:42.753Z,11.00
2019-02-12T09:47:01.673Z,11.00
2019-02-12T09:49:46.912Z,10.10
2019-02-12T09:52:33.809Z,8.43
2019-02-12T09:55:38.117Z,7.60
2019-02-12T09:58:14.082Z,7.00
2019-02-12T10:04:08.503Z,10.27
2019-02-12T10:06:58.415Z,10.10
2019-02-12T10:09:31.511Z,10.47
2019-02-12T10:12:18.818Z,8.23
2019-02-12T10:14:49.429Z,6.97
2019-02-12T10:17:57.586Z,7.27
2019-02-12T10:20:45.508Z,8.20
2019-02-12T10:23:54.205Z,9.30
2019-02-12T10:27:08.407Z,10.10
2019-02-12T10:29:53.322Z,7.70
2019-02-12T10:32:25.051Z,9.60
2019-02-12T10:34:55.378Z,7.70
2019-02-12T10:37:25.967Z,7.90
2019-02-12T10:39:56.409Z,10.07
2019-02-12T10:42:27.511Z,10.13
2019-02-12T10:44:57.887Z,8.70
2019-02-12T10:47:28.311Z,9.40
2019-02-12T10:49:59.669Z,9.63
2019-02-12T10:52:29.084Z,10.23
2019-02-12T10:54:59.533Z,9.50
2019-02-12T10:57:32.921Z,7.40
2019-02-12T11:00:03.488Z,8.10
2019-02-12T11:02:33.941Z,8.93
2019-02-12T11:05:05.084Z,9.83
2019-02-12T11:07:35.946Z,9.77
2019-02-12T11:10:06.325Z,7.57
2019-02-12T11:12:36.714Z,10.03
2019-02-12T11:15:07.099Z,9.77
2019-02-12T11:17:38.262Z,9.40
2019-02-12T11:20:09.433Z,8.53
2019-02-12T11:22:40.179Z,10.90
2019-02-12T11:25:30.694Z,11.00
2019-02-12T11:28:01.071Z,11.27
2019-02-12T11:30:32.157Z,11.10
2019-02-12T11:33:09.916Z,10.37
2019-02-12T11:35:40.420Z,7.60
2019-02-12T11:38:11.590Z,8.90
2019-02-12T11:40:42.029Z,8.93
2019-02-12T11:43:12.415Z,8.37
2019-02-12T11:45:42.805Z,7.77
2019-02-12T11:48:17.960Z,6.27
2019-02-12T11:50:47.736Z,7.27
2019-02-12T11:53:18.168Z,6.53
2019-02-12T11:55:48.552Z,7.10
2019-02-12T11:58:19.956Z,6.70
2019-02-12T12:00:50.862Z,5.80
2019-02-12T12:03:21.187Z,5.60
2019-02-12T12:05:51.573Z,6.53
2019-02-12T12:08:22.037Z,5.83
2019-02-12T12:10:52.643Z,6.23
2019-02-12T12:13:23.205Z,5.67
2019-02-12T12:15:53.595Z,4.40
2019-02-12T12:18:24.147Z,3.93
2019-02-12T12:20:55.295Z,4.30
2019-02-12T12:23:26.373Z,3.37
2019-02-12T12:25:56.760Z,3.10
2019-02-12T12:28:27.851Z,2.07
2019-02-12T12:31:03.392Z,2.30
2019-02-12T12:33:33.717Z,2.10
2019-02-12T12:36:06.201Z,2.13
2019-02-12T12:38:36.621Z,1.20
2019-02-12T12:41:06.948Z,1.47
2019-02-12T12:43:37.265Z,1.97
2019-02-12T12:46:07.782Z,1.90
2019-02-12T12:48:40.080Z,2.00
2019-02-12T12:51:29.414Z,2.50
2019-02-12T12:54:00.501Z,2.37
2019-02-12T12:56:30.945Z,2.03
2019-02-12T12:59:01.268Z,2.80
2019-02-12T13:01:31.646Z,2.23
2019-02-12T13:04:02.152Z,2.00
2019-02-12T13:06:33.306Z,2.20
2019-02-12T13:09:04.449Z,2.13
2019-02-12T13:11:35.848Z,2.57
2019-02-12T13:14:26.634Z,2.07
2019-02-12T13:16:57.017Z,2.57
2019-02-12T13:19:29.125Z,1.93
2019-02-12T13:21:59.610Z,1.87
2019-02-12T13:24:29.981Z,2.20
2019-02-12T13:27:00.370Z,2.77
2019-02-12T13:29:31.516Z,2.13
2019-02-12T13:32:02.673Z,1.80
2019-02-12T13:34:33.066Z,2.37
2019-02-12T13:37:03.669Z,2.33
2019-02-12T13:39:34.019Z,2.10
2019-02-12T13:42:04.401Z,2.30
2019-02-12T13:44:34.834Z,1.73
2019-02-12T13:47:05.404Z,2.23
2019-02-12T13:49:35.729Z,2.17
2019-02-12T13:52:06.111Z,1.73
2019-02-12T13:54:36.484Z,2.20
2019-02-12T13:57:06.926Z,2.33
2019-02-12T13:59:37.307Z,1.80
2019-02-12T14:02:07.746Z,2.07
2019-02-12T14:04:38.119Z,1.80
2019-02-12T14:07:08.436Z,2.27
2019-02-12T14:09:39.567Z,2.07
2019-02-12T14:12:09.950Z,2.03
2019-02-12T14:14:43.406Z,2.00
2019-02-12T14:17:14.603Z,1.77
2019-02-12T14:19:52.283Z,2.33
2019-02-12T14:25:05.999Z,1.50
2019-02-12T14:27:36.435Z,1.60
2019-02-12T14:30:09.734Z,1.27
2019-02-12T14:32:40.940Z,1.70
2019-02-12T14:35:11.327Z,1.67
2019-02-12T14:37:42.055Z,1.93
2019-02-12T14:40:17.581Z,1.93
2019-02-12T14:42:48.748Z,1.87
2019-02-12T14:45:19.377Z,1.90
2019-02-12T14:47:49.873Z,1.47
2019-02-12T14:50:20.258Z,1.67
2019-02-12T14:52:56.074Z,1.50
2019-02-12T14:55:33.631Z,1.60
2019-02-12T14:57:57.733Z,2.27
2019-02-12T15:00:28.184Z,1.90
2019-02-12T15:02:58.565Z,2.60
2019-02-12T15:05:28.992Z,3.33
2019-02-12T15:07:59.442Z,3.27
2019-02-12T15:10:29.765Z,2.50
2019-02-12T15:13:00.199Z,2.80
2019-02-12T15:15:30.620Z,3.07
2019-02-12T15:18:00.997Z,2.97
2019-02-12T15:20:31.579Z,2.67
2019-02-12T15:23:02.020Z,2.60
2019-02-12T15:25:33.247Z,3.50
2019-02-12T15:28:03.562Z,5.40
2019-02-12T15:30:35.998Z,3.17
2019-02-12T15:33:06.381Z,2.57
2019-02-12T15:35:36.772Z,2.70
2019-02-12T15:38:08.301Z,3.07
2019-02-12T15:40:38.728Z,2.73
2019-02-12T15:43:09.187Z,3.17
2019-02-12T15:46:00.044Z,3.60
2019-02-12T15:48:31.190Z,3.60
2019-02-12T15:51:01.589Z,3.13
2019-02-12T15:53:32.069Z,4.50
2019-02-12T15:56:02.499Z,4.07
2019-02-12T15:58:32.971Z,3.70
2019-02-12T16:01:04.485Z,4.73
2019-02-12T16:03:34.576Z,4.97
2019-02-12T16:06:04.167Z,4.37
2019-02-12T16:08:36.557Z,4.47
2019-02-12T16:11:06.949Z,4.87
2019-02-12T16:13:38.315Z,4.17
2019-02-12T16:16:09.917Z,3.90
2019-02-12T16:18:39.982Z,3.57
2019-02-12T16:21:10.322Z,4.53
2019-02-12T16:23:41.496Z,4.10
2019-02-12T16:26:11.881Z,3.43
2019-02-12T16:28:42.277Z,3.87
2019-02-12T16:31:12.894Z,3.80
2019-02-12T16:33:45.341Z,3.80
2019-02-12T16:36:15.728Z,3.77
2019-02-12T16:38:46.179Z,3.93
2019-02-12T16:41:16.623Z,3.87
2019-02-12T16:43:47.010Z,3.60
2019-02-12T16:46:17.403Z,3.83
2019-02-12T16:48:48.116Z,3.93
2019-02-12T16:51:20.066Z,3.70
2019-02-12T16:53:50.455Z,4.13
2019-02-12T16:56:20.911Z,4.30
2019-02-12T16:58:52.063Z,4.50
2019-02-12T17:01:22.521Z,4.60
2019-02-12T17:03:52.924Z,3.83
2019-02-12T17:06:24.137Z,4.40
2019-02-12T17:08:54.475Z,4.60
2019-02-12T17:11:25.759Z,4.97
2019-02-12T17:13:56.079Z,5.30
2019-02-12T17:16:28.531Z,6.40
2019-02-12T17:18:59.789Z,5.70
2019-02-12T17:21:30.394Z,5.43
2019-02-12T17:24:01.034Z,5.80
2019-02-12T17:26:32.273Z,6.27
2019-02-12T17:29:02.667Z,6.27
2019-02-12T17:31:52.442Z,5.40
2019-02-12T17:34:29.926Z,4.37
2019-02-12T17:37:03.451Z,4.60
2019-02-12T17:39:33.940Z,4.83
2019-02-12T17:42:04.510Z,5.13
2019-02-12T17:44:34.985Z,6.40
2019-02-12T17:47:06.160Z,7.03
2019-02-12T17:49:36.548Z,5.77
2019-02-12T17:52:08.757Z,5.53
2019-02-12T17:54:39.157Z,4.80
2019-02-12T17:57:09.480Z,5.30
2019-02-12T17:59:40.121Z,5.83
2019-02-12T18:02:10.575Z,6.87
2019-02-12T18:04:44.031Z,6.57
2019-02-12T18:07:14.619Z,5.70
2019-02-12T18:09:45.000Z,5.50
2019-02-12T18:12:16.173Z,4.90
2019-02-12T18:14:46.522Z,5.00
2019-02-12T18:17:17.151Z,5.23
2019-02-12T18:19:47.719Z,5.03
2019-02-12T18:22:18.946Z,5.97
2019-02-12T18:24:49.274Z,6.77
2019-02-12T18:30:06.035Z,6.53
2019-02-12T18:32:36.487Z,8.30
2019-02-12T18:35:07.066Z,8.07
2019-02-12T18:37:37.687Z,9.23
2019-02-12T18:40:08.344Z,8.57
2019-02-12T18:42:38.749Z,10.90
2019-02-12T18:45:09.216Z,12.60
2019-02-12T18:47:39.550Z,13.33
2019-02-12T18:50:10.213Z,11.43
2019-02-12T18:52:40.627Z,14.93
2019-02-12T18:55:16.042Z,25.40
2019-02-12T18:57:46.441Z,26.07
2019-02-12T19:00:16.910Z,19.10
2019-02-12T19:02:47.316Z,18.47
2019-02-12T19:05:19.686Z,14.77
2019-02-12T19:07:50.958Z,12.93
2019-02-12T19:10:21.340Z,12.73
2019-02-12T19:12:51.731Z,12.20
2019-02-12T19:15:28.331Z,11.33
2019-02-12T19:17:58.990Z,9.03
2019-02-12T19:20:29.415Z,8.57
2019-02-12T19:23:00.765Z,8.57
2019-02-12T19:25:31.165Z,9.73
2019-02-12T19:28:01.603Z,8.57
2019-02-12T19:30:32.051Z,9.00
2019-02-12T19:33:03.194Z,10.70
2019-02-12T19:35:34.552Z,12.53
2019-02-12T19:38:05.176Z,12.53
2019-02-12T19:40:40.612Z,12.10
2019-02-12T19:43:12.182Z,11.03
2019-02-12T19:45:42.572Z,11.37
2019-02-12T19:48:12.957Z,11.43
2019-02-12T19:50:43.399Z,10.90
2019-02-12T19:53:19.917Z,11.30
2019-02-12T19:55:50.363Z,11.13
2019-02-12T19:58:20.750Z,10.77
2019-02-12T20:00:51.136Z,9.93
2019-02-12T20:03:21.537Z,10.33
2019-02-12T20:05:52.738Z,10.03
2019-02-12T20:08:23.310Z,10.30
2019-02-12T20:10:53.702Z,10.00
2019-02-12T20:13:24.137Z,9.97
2019-02-12T20:15:55.481Z,9.53
2019-02-12T20:18:25.811Z,10.37
2019-02-12T20:20:56.250Z,10.47
2019-02-12T20:23:27.410Z,11.30
2019-02-12T20:25:58.601Z,10.67
2019-02-12T20:28:31.042Z,11.47
2019-02-12T20:31:01.428Z,12.07
2019-02-12T20:33:31.889Z,12.80
2019-02-12T20:36:03.351Z,13.07
2019-02-12T20:38:33.683Z,13.13
2019-02-12T20:41:04.037Z,13.43
2019-02-12T20:43:41.711Z,13.33
2019-02-12T20:46:12.040Z,16.20
2019-02-12T20:48:42.376Z,14.70
2019-02-12T20:51:16.869Z,14.03
2019-02-12T20:53:47.248Z,17.33
2019-02-12T20:56:17.687Z,18.40
2019-02-12T20:58:48.010Z,16.13
2019-02-12T21:01:18.398Z,13.67
2019-02-12T21:03:49.105Z,11.77
2019-02-12T21:06:19.559Z,10.53
2019-02-12T21:08:50.986Z,10.40
2019-02-12T21:11:21.603Z,10.07
2019-02-12T21:13:52.984Z,10.30
2019-02-12T21:16:23.365Z,10.10
2019-02-12T21:18:54.820Z,9.33
2019-02-12T21:21:25.407Z,8.20
2019-02-12T21:24:03.005Z,8.97
2019-02-12T21:26:37.489Z,9.80
2019-02-12T21:29:08.643Z,9.73
2019-02-12T21:31:39.024Z,9.07
2019-02-12T21:34:09.415Z,7.63
2019-02-12T21:36:39.784Z,8.73
2019-02-12T21:39:10.173Z,7.90
2019-02-12T21:41:45.797Z,8.57
2019-02-12T21:44:16.954Z,8.43
2019-02-12T21:46:47.337Z,8.10
2019-02-12T21:49:17.771Z,8.23
2019-02-12T21:51:48.938Z,8.63
2019-02-12T21:54:19.263Z,7.70
2019-02-12T21:56:49.779Z,8.63
2019-02-12T21:59:20.870Z,8.17
2019-02-12T22:02:11.439Z,8.43
2019-02-12T22:04:41.761Z,8.40
2019-02-12T22:07:12.384Z,8.20
2019-02-12T22:09:43.515Z,8.53
2019-02-12T22:12:14.600Z,8.43
2019-02-12T22:14:44.987Z,8.83
2019-02-12T22:17:16.459Z,9.47
2019-02-12T22:19:46.839Z,9.13
2019-02-12T22:22:17.262Z,10.33
2019-02-12T22:24:47.651Z,10.10
2019-02-12T22:27:18.040Z,8.63
2019-02-12T22:29:48.558Z,8.63
2019-02-12T22:32:18.944Z,9.37
2019-02-12T22:37:33.058Z,10.33
2019-02-12T22:40:03.365Z,9.27
2019-02-12T22:42:33.809Z,10.33
2019-02-12T22:45:04.192Z,9.97
2019-02-12T22:47:38.737Z,9.10
2019-02-12T22:50:09.123Z,8.93
2019-02-12T22:52:39.565Z,8.77
2019-02-12T22:55:09.909Z,8.97
2019-02-12T22:58:00.665Z,8.50
2019-02-12T23:00:45.311Z,8.40
2019-02-12T23:03:16.525Z,8.17
2019-02-12T23:05:47.931Z,8.93
2019-02-12T23:08:20.734Z,8.97
2019-02-12T23:10:51.061Z,9.43
2019-02-12T23:13:21.479Z,8.83
2019-02-12T23:15:51.859Z,7.87
2019-02-12T23:18:22.523Z,8.10
2019-02-12T23:20:53.676Z,8.00
2019-02-12T23:23:24.056Z,7.50
2019-02-12T23:25:54.722Z,7.13
2019-02-12T23:28:25.813Z,7.30
2019-02-12T23:31:04.071Z,7.70
2019-02-12T23:33:34.463Z,8.63
2019-02-12T23:36:04.841Z,8.00
2019-02-12T23:38:35.565Z,8.20
2019-02-12T23:41:06.652Z,8.33
2019-02-12T23:43:37.105Z,7.40
2019-02-12T23:46:07.493Z,7.97
2019-02-12T23:48:40.348Z,7.80
2019-02-12T23:51:11.499Z,8.43
2019-02-12T23:53:41.891Z,8.83
2019-02-12T23:56:12.498Z,8.50
2019-02-12T23:58:45.958Z,9.00
